createdAt,value
2019-03-13T00:01:30.537Z,99676.06
2019-03-13T00:04:00.527Z,99671.73
2019-03-13T00:06:30.502Z,99653.69
2019-03-13T00:09:00.608Z,99660.13
2019-03-13T00:11:30.801Z,99655.09
2019-03-13T00:14:00.981Z,99655.32
2019-03-13T00:16:31.171Z,99651.52
2019-03-13T00:19:01.146Z,99651.86
2019-03-13T00:21:31.031Z,99642.50
2019-03-13T00:24:01.155Z,99637.94
2019-03-13T00:26:31.305Z,99635.65
2019-03-13T00:29:01.489Z,99629.98
2019-03-13T00:31:31.584Z,99610.31
2019-03-13T00:34:01.705Z,99623.64
2019-03-13T00:36:31.603Z,99615.81
2019-03-13T00:39:01.532Z,99610.76
2019-03-13T00:41:33.356Z,99613.30
2019-03-13T00:44:03.359Z,99609.53
2019-03-13T00:46:33.533Z,99597.69
2019-03-13T00:49:03.483Z,99617.45
2019-03-13T00:51:36.720Z,99612.83
2019-03-13T00:54:05.634Z,99609.84
2019-03-13T00:56:35.770Z,99614.19
2019-03-13T00:59:05.696Z,99609.94
2019-03-13T01:01:52.607Z,99609.70
2019-03-13T01:04:26.891Z,99606.41
2019-03-13T01:07:00.431Z,99591.50
2019-03-13T01:09:30.908Z,99595.23
2019-03-13T01:12:00.842Z,99590.30
2019-03-13T01:14:30.747Z,99591.73
2019-03-13T01:17:00.652Z,99600.86
2019-03-13T01:19:30.550Z,99608.34
2019-03-13T01:22:00.519Z,99596.77
2019-03-13T01:24:30.470Z,99602.96
2019-03-13T01:27:00.799Z,99610.98
2019-03-13T01:29:31.037Z,99611.39
2019-03-13T01:32:23.191Z,99636.40
2019-03-13T01:35:15.579Z,99635.84
2019-03-13T01:37:45.559Z,99651.33
2019-03-13T01:40:15.985Z,99645.77
2019-03-13T01:42:46.018Z,99634.78
2019-03-13T01:45:17.956Z,99646.30
2019-03-13T01:47:48.010Z,99648.86
2019-03-13T01:50:17.939Z,99642.46
2019-03-13T01:52:47.859Z,99645.12
2019-03-13T01:55:18.183Z,99635.55
2019-03-13T01:57:48.377Z,99634.59
2019-03-13T02:00:18.560Z,99639.16
2019-03-13T02:02:48.435Z,99625.27
2019-03-13T02:05:18.322Z,99635.27
2019-03-13T02:07:48.748Z,99644.54
2019-03-13T02:10:19.173Z,99646.35
2019-03-13T02:12:49.059Z,99648.92
2019-03-13T02:15:20.210Z,99648.97
2019-03-13T02:17:50.323Z,99655.36
2019-03-13T02:20:20.449Z,99648.35
2019-03-13T02:22:50.430Z,99645.25
2019-03-13T02:25:20.486Z,99643.09
2019-03-13T02:27:50.615Z,99632.91
2019-03-13T02:30:25.942Z,99632.08
2019-03-13T02:32:56.195Z,99630.17
2019-03-13T02:35:26.309Z,99625.06
2019-03-13T02:37:56.296Z,99616.89
2019-03-13T02:40:26.176Z,99609.98
2019-03-13T02:42:56.138Z,99605.30
2019-03-13T02:45:26.070Z,99594.20
2019-03-13T02:47:55.950Z,99587.30
2019-03-13T02:50:25.875Z,99598.38
2019-03-13T02:52:56.253Z,99592.84
2019-03-13T02:55:26.637Z,99596.73
2019-03-13T02:57:56.537Z,99597.11
2019-03-13T03:00:47.333Z,99599.23
2019-03-13T03:03:30.190Z,99597.14
2019-03-13T03:06:00.479Z,99604.42
2019-03-13T03:08:30.358Z,99616.40
2019-03-13T03:11:00.270Z,99627.55
2019-03-13T03:13:30.400Z,99629.31
2019-03-13T03:16:00.358Z,99632.77
2019-03-13T03:18:30.351Z,99652.40
2019-03-13T03:21:00.231Z,99655.45
2019-03-13T03:23:30.311Z,99685.56
2019-03-13T03:26:02.168Z,99695.66
2019-03-13T03:28:32.175Z,99696.97
2019-03-13T03:31:02.113Z,99701.63
2019-03-13T03:33:32.456Z,99702.52
2019-03-13T03:36:02.344Z,99710.21
2019-03-13T03:38:32.264Z,99708.11
2019-03-13T03:41:02.403Z,99717.48
2019-03-13T03:43:39.974Z,99718.80
2019-03-13T03:46:04.183Z,99730.78
2019-03-13T03:48:34.187Z,99737.66
2019-03-13T03:51:04.056Z,99741.92
2019-03-13T03:53:33.940Z,99752.23
2019-03-13T03:56:03.845Z,99752.64
2019-03-13T03:58:33.749Z,99777.02
2019-03-13T04:01:03.653Z,99782.91
2019-03-13T04:03:33.890Z,99783.35
2019-03-13T04:06:03.971Z,99797.22
2019-03-13T04:08:37.541Z,99808.92
2019-03-13T04:11:05.546Z,99804.62
2019-03-13T04:13:35.477Z,99809.70
2019-03-13T04:16:05.548Z,99816.07
2019-03-13T04:18:35.438Z,99832.38
2019-03-13T04:21:05.406Z,99843.30
2019-03-13T04:23:35.406Z,99846.20
2019-03-13T04:26:05.762Z,99848.75
2019-03-13T04:28:35.645Z,99855.27
2019-03-13T04:31:05.844Z,99852.09
2019-03-13T04:33:35.703Z,99863.85
2019-03-13T04:36:05.681Z,99862.48
2019-03-13T04:38:35.577Z,99856.58
2019-03-13T04:41:05.547Z,99871.47
2019-03-13T04:43:35.462Z,99882.33
2019-03-13T04:46:05.409Z,99886.06
2019-03-13T04:48:35.288Z,99886.37
2019-03-13T04:51:05.479Z,99896.00
2019-03-13T04:53:35.619Z,99892.67
2019-03-13T04:56:05.510Z,99900.05
2019-03-13T04:58:35.851Z,99905.02
2019-03-13T05:01:05.730Z,99900.41
2019-03-13T05:03:35.752Z,99910.46
2019-03-13T05:06:19.503Z,99915.23
2019-03-13T05:09:11.162Z,99920.16
2019-03-13T05:11:41.320Z,99911.36
2019-03-13T05:14:11.218Z,99914.91
2019-03-13T05:16:41.109Z,99920.40
2019-03-13T05:19:11.000Z,99927.83
2019-03-13T05:21:40.896Z,99929.27
2019-03-13T05:24:10.772Z,99930.54
2019-03-13T05:26:40.664Z,99933.31
2019-03-13T05:29:10.635Z,99933.23
2019-03-13T05:31:40.519Z,99939.80
2019-03-13T05:34:10.406Z,99944.01
2019-03-13T05:36:40.306Z,99950.88
2019-03-13T05:39:10.210Z,99956.47
2019-03-13T05:41:40.498Z,99955.59
2019-03-13T05:44:10.461Z,99951.98
2019-03-13T05:46:40.567Z,99948.95
2019-03-13T05:49:10.511Z,99961.84
2019-03-13T05:51:40.781Z,99967.03
2019-03-13T05:54:10.670Z,99960.84
2019-03-13T05:56:41.065Z,99956.37
2019-03-13T05:59:11.010Z,99965.27
2019-03-13T06:01:40.896Z,99968.56
2019-03-13T06:04:10.903Z,99969.19
2019-03-13T06:06:40.991Z,99971.91
2019-03-13T06:09:11.170Z,99980.30
2019-03-13T06:11:41.179Z,99983.73
2019-03-13T06:14:11.138Z,99977.03
2019-03-13T06:16:41.440Z,99975.38
2019-03-13T06:19:11.369Z,99989.42
2019-03-13T06:21:41.305Z,99994.72
2019-03-13T06:24:11.254Z,99999.05
2019-03-13T06:26:41.514Z,100005.48
2019-03-13T06:29:11.502Z,100002.78
2019-03-13T06:31:41.543Z,100006.22
2019-03-13T06:34:11.764Z,100008.88
2019-03-13T06:36:41.743Z,100008.92
2019-03-13T06:39:11.789Z,100006.66
2019-03-13T06:41:42.123Z,100015.70
2019-03-13T06:44:12.059Z,100026.33
2019-03-13T06:46:41.991Z,100026.97
2019-03-13T06:49:11.904Z,100027.05
2019-03-13T06:51:42.222Z,100035.65
2019-03-13T06:54:12.258Z,100036.56
2019-03-13T06:56:42.204Z,100033.98
2019-03-13T06:59:16.861Z,100036.67
2019-03-13T07:02:05.537Z,100033.67
2019-03-13T07:04:53.345Z,100034.00
2019-03-13T07:07:31.682Z,100031.67
2019-03-13T07:10:26.646Z,100029.07
2019-03-13T07:13:24.362Z,100029.89
2019-03-13T07:16:16.232Z,100024.91
2019-03-13T07:19:09.443Z,100023.18
2019-03-13T07:22:10.434Z,100029.19
2019-03-13T07:24:51.239Z,100027.50
2019-03-13T07:27:52.319Z,100033.91
2019-03-13T07:30:37.490Z,100037.78
2019-03-13T07:33:26.689Z,100036.77
2019-03-13T07:36:03.880Z,100025.34
2019-03-13T07:38:40.407Z,100029.61
2019-03-13T07:41:25.260Z,100030.07
2019-03-13T07:44:13.238Z,100030.07
2019-03-13T07:46:52.812Z,100038.66
2019-03-13T07:49:44.594Z,100027.06
2019-03-13T07:52:39.741Z,100033.07
2019-03-13T07:55:18.414Z,100020.59
2019-03-13T07:58:16.607Z,100032.63
2019-03-13T08:01:07.932Z,100022.77
2019-03-13T08:03:55.649Z,100021.47
2019-03-13T08:06:47.654Z,100021.90
2019-03-13T08:09:28.960Z,100032.14
2019-03-13T08:12:16.954Z,100030.06
2019-03-13T08:14:54.996Z,100026.64
2019-03-13T08:17:37.893Z,100024.82
2019-03-13T08:20:19.334Z,100037.56
2019-03-13T08:23:06.809Z,100027.04
2019-03-13T08:25:45.366Z,100027.04
2019-03-13T08:28:46.868Z,100022.35
2019-03-13T08:31:30.277Z,100036.73
2019-03-13T08:34:13.781Z,100017.61
2019-03-13T08:36:49.915Z,100014.58
2019-03-13T08:39:39.018Z,100010.23
2019-03-13T08:42:18.639Z,100015.43
2019-03-13T08:45:03.633Z,100004.32
2019-03-13T08:47:48.646Z,100011.19
2019-03-13T08:50:46.422Z,100006.43
2019-03-13T08:53:24.556Z,99997.81
2019-03-13T08:56:12.599Z,99997.78
2019-03-13T08:58:53.350Z,100008.50
2019-03-13T09:01:41.682Z,100000.39
2019-03-13T09:04:31.670Z,99990.36
2019-03-13T09:07:23.723Z,99992.89
2019-03-13T09:10:28.244Z,99983.10
2019-03-13T09:13:19.804Z,99989.73
2019-03-13T09:16:06.574Z,99981.69
2019-03-13T09:18:44.738Z,99990.52
2019-03-13T09:21:27.001Z,99983.63
2019-03-13T09:24:05.996Z,99969.95
2019-03-13T09:26:54.836Z,99985.77
2019-03-13T09:29:37.089Z,99974.12
2019-03-13T09:32:35.819Z,99960.52
2019-03-13T09:35:28.333Z,99965.09
2019-03-13T09:38:29.283Z,99960.98
2019-03-13T09:41:08.742Z,99954.42
2019-03-13T09:43:59.677Z,99955.19
2019-03-13T09:46:39.075Z,99951.12
2019-03-13T09:49:31.245Z,99957.55
2019-03-13T09:52:14.079Z,99962.14
2019-03-13T09:55:04.355Z,99976.41
2019-03-13T09:57:58.902Z,99965.30
2019-03-13T10:00:47.395Z,99958.41
2019-03-13T10:03:22.341Z,99954.52
2019-03-13T10:06:31.816Z,99960.09
2019-03-13T10:09:26.648Z,99963.09
2019-03-13T10:12:24.812Z,99948.42
2019-03-13T10:15:03.367Z,99929.76
2019-03-13T10:17:52.059Z,99922.03
2019-03-13T10:20:39.604Z,99917.34
2019-03-13T10:23:27.807Z,99925.77
2019-03-13T10:26:06.505Z,99921.85
2019-03-13T10:29:04.267Z,99918.80
2019-03-13T10:31:52.154Z,99916.42
2019-03-13T10:34:41.538Z,99903.30
2019-03-13T10:37:34.646Z,99914.83
2019-03-13T10:40:23.645Z,99907.55
2019-03-13T10:43:12.611Z,99899.60
2019-03-13T10:45:49.863Z,99889.92
2019-03-13T10:48:43.998Z,99893.63
2019-03-13T10:51:29.696Z,99880.77
2019-03-13T10:54:06.181Z,99880.73
2019-03-13T10:56:43.337Z,99882.95
2019-03-13T10:59:23.911Z,99871.29
2019-03-13T11:02:11.281Z,99871.67
2019-03-13T11:04:51.089Z,99880.13
2019-03-13T11:07:42.852Z,99884.47
2019-03-13T11:10:25.827Z,99884.67
2019-03-13T11:13:09.294Z,99875.05
2019-03-13T11:15:53.949Z,99877.44
2019-03-13T11:18:32.657Z,99881.57
2019-03-13T11:21:08.842Z,99884.20
2019-03-13T11:24:01.242Z,99879.30
2019-03-13T11:26:53.313Z,99866.38
2019-03-13T11:29:48.318Z,99866.55
2019-03-13T11:32:25.283Z,99866.67
2019-03-13T11:35:09.931Z,99864.47
2019-03-13T11:37:58.674Z,99869.81
2019-03-13T11:40:37.391Z,99868.56
2019-03-13T11:43:17.045Z,99874.02
2019-03-13T11:45:58.496Z,99865.09
2019-03-13T11:48:53.398Z,99879.92
2019-03-13T11:51:42.414Z,99863.14
2019-03-13T11:54:34.299Z,99863.19
2019-03-13T11:57:24.791Z,99864.95
2019-03-13T12:00:01.541Z,99875.94
2019-03-13T12:02:41.788Z,99879.52
2019-03-13T12:05:34.195Z,99868.76
2019-03-13T12:08:22.077Z,99858.75
2019-03-13T12:11:03.781Z,99870.83
2019-03-13T12:13:51.834Z,99868.27
2019-03-13T12:16:39.125Z,99870.92
2019-03-13T12:19:30.801Z,99871.23
2019-03-13T12:22:07.647Z,99866.83
2019-03-13T12:24:48.950Z,99874.04
2019-03-13T12:27:38.044Z,99869.25
2019-03-13T12:30:27.846Z,99867.78
2019-03-13T12:33:17.098Z,99871.14
2019-03-13T12:35:54.571Z,99869.41
2019-03-13T12:38:33.062Z,99859.06
2019-03-13T12:41:21.977Z,99862.52
2019-03-13T12:43:57.997Z,99862.03
2019-03-13T12:46:37.524Z,99859.59
2019-03-13T12:49:22.545Z,99862.48
2019-03-13T12:52:04.603Z,99864.28
2019-03-13T12:54:52.604Z,99857.20
2019-03-13T12:57:52.922Z,99860.00
2019-03-13T13:00:45.042Z,99845.46
2019-03-13T13:03:25.826Z,99841.22
2019-03-13T13:06:09.016Z,99838.83
2019-03-13T13:09:06.686Z,99841.63
2019-03-13T13:11:53.085Z,99835.06
2019-03-13T13:14:41.955Z,99823.86
2019-03-13T13:17:23.762Z,99823.47
2019-03-13T13:19:53.758Z,99831.59
2019-03-13T13:22:23.641Z,99823.93
2019-03-13T13:24:53.562Z,99821.68
2019-03-13T13:27:23.989Z,99811.80
2019-03-13T13:29:53.896Z,99809.58
2019-03-13T13:32:23.798Z,99809.87
2019-03-13T13:34:53.697Z,99812.89
2019-03-13T13:37:23.770Z,99808.81
2019-03-13T13:39:53.663Z,99802.13
2019-03-13T13:42:23.579Z,99796.42
2019-03-13T13:44:53.547Z,99798.20
2019-03-13T13:47:23.616Z,99786.98
2019-03-13T13:49:59.614Z,99788.23
2019-03-13T13:52:25.208Z,99791.88
2019-03-13T13:54:55.163Z,99789.38
2019-03-13T13:57:25.602Z,99779.81
2019-03-13T13:59:55.601Z,99785.98
2019-03-13T14:02:25.492Z,99787.64
2019-03-13T14:04:55.471Z,99781.83
2019-03-13T14:07:25.375Z,99770.83
2019-03-13T14:09:55.293Z,99767.28
2019-03-13T14:12:25.182Z,99764.54
2019-03-13T14:14:55.332Z,99773.66
2019-03-13T14:17:25.211Z,99773.98
2019-03-13T14:19:55.425Z,99772.28
2019-03-13T14:22:25.582Z,99770.83
2019-03-13T14:24:55.496Z,99767.13
2019-03-13T14:27:25.396Z,99762.68
2019-03-13T14:29:55.432Z,99758.73
2019-03-13T14:32:25.561Z,99759.31
2019-03-13T14:34:55.617Z,99768.28
2019-03-13T14:37:25.525Z,99757.70
2019-03-13T14:39:55.751Z,99740.72
2019-03-13T14:42:26.093Z,99745.88
2019-03-13T14:44:56.241Z,99744.28
2019-03-13T14:47:26.181Z,99740.48
2019-03-13T14:49:56.186Z,99742.84
2019-03-13T14:52:26.116Z,99739.78
2019-03-13T14:54:56.260Z,99737.05
2019-03-13T14:57:26.263Z,99739.61
2019-03-13T14:59:56.192Z,99750.34
2019-03-13T15:02:26.116Z,99741.80
2019-03-13T15:04:56.061Z,99746.94
2019-03-13T15:07:26.000Z,99743.55
2019-03-13T15:09:55.938Z,99728.78
2019-03-13T15:12:25.903Z,99723.03
2019-03-13T15:14:56.343Z,99721.08
2019-03-13T15:17:26.496Z,99726.08
2019-03-13T15:19:56.627Z,99723.42
2019-03-13T15:22:26.537Z,99726.73
2019-03-13T15:24:56.735Z,99729.47
2019-03-13T15:27:26.923Z,99729.59
2019-03-13T15:29:56.885Z,99724.55
2019-03-13T15:32:26.846Z,99726.08
2019-03-13T15:34:56.805Z,99728.41
2019-03-13T15:37:26.901Z,99723.30
2019-03-13T15:39:56.853Z,99729.15
2019-03-13T15:42:27.248Z,99729.02
2019-03-13T15:44:57.205Z,99735.34
2019-03-13T15:47:27.141Z,99732.39
2019-03-13T15:49:57.047Z,99723.81
2019-03-13T15:52:26.922Z,99746.39
2019-03-13T15:54:57.009Z,99744.18
2019-03-13T15:57:26.941Z,99720.36
2019-03-13T15:59:57.126Z,99721.36
2019-03-13T16:02:27.049Z,99723.62
2019-03-13T16:04:56.975Z,99719.07
2019-03-13T16:07:27.105Z,99720.36
2019-03-13T16:09:56.990Z,99709.02
2019-03-13T16:12:27.037Z,99705.11
2019-03-13T16:14:56.954Z,99705.77
2019-03-13T16:17:27.218Z,99695.03
2019-03-13T16:19:57.728Z,99703.02
2019-03-13T16:22:27.670Z,99704.98
2019-03-13T16:24:57.593Z,99700.98
2019-03-13T16:27:27.510Z,99697.58
2019-03-13T16:29:58.091Z,99688.63
2019-03-13T16:32:28.428Z,99691.11
2019-03-13T16:34:58.350Z,99692.91
2019-03-13T16:37:28.313Z,99674.67
2019-03-13T16:39:58.468Z,99688.63
2019-03-13T16:42:28.373Z,99671.94
2019-03-13T16:44:58.522Z,99662.30
2019-03-13T16:47:28.437Z,99667.18
2019-03-13T16:49:58.363Z,99671.24
2019-03-13T16:52:28.389Z,99668.59
2019-03-13T16:54:58.670Z,99668.38
2019-03-13T16:57:28.589Z,99660.03
2019-03-13T17:00:00.835Z,99658.75
2019-03-13T17:02:30.392Z,99655.66
2019-03-13T17:05:00.441Z,99644.45
2019-03-13T17:07:30.478Z,99643.87
2019-03-13T17:10:00.615Z,99653.79
2019-03-13T17:12:30.636Z,99652.87
2019-03-13T17:15:00.567Z,99649.14
2019-03-13T17:17:30.633Z,99649.40
2019-03-13T17:20:00.738Z,99651.36
2019-03-13T17:22:31.245Z,99652.57
2019-03-13T17:25:01.515Z,99651.02
2019-03-13T17:27:31.855Z,99645.83
2019-03-13T17:30:02.130Z,99639.61
2019-03-13T17:32:32.512Z,99637.03
2019-03-13T17:35:02.454Z,99639.34
2019-03-13T17:37:32.740Z,99641.92
2019-03-13T17:40:02.760Z,99637.75
2019-03-13T17:42:32.741Z,99628.25
2019-03-13T17:45:02.868Z,99626.42
2019-03-13T17:47:33.398Z,99637.21
2019-03-13T17:50:03.335Z,99636.30
2019-03-13T17:52:33.288Z,99638.82
2019-03-13T17:55:03.376Z,99632.94
2019-03-13T17:57:33.593Z,99636.63
2019-03-13T18:00:05.231Z,99620.59
2019-03-13T18:02:35.348Z,99628.63
2019-03-13T18:05:05.988Z,99627.61
2019-03-13T18:07:35.964Z,99609.34
2019-03-13T18:10:07.999Z,99618.17
2019-03-13T18:12:38.534Z,99614.86
2019-03-13T18:15:09.346Z,99616.47
2019-03-13T18:17:40.593Z,99615.72
2019-03-13T18:20:13.706Z,99635.86
2019-03-13T18:22:43.713Z,99641.59
2019-03-13T18:25:17.861Z,99634.36
2019-03-13T18:27:46.501Z,99637.78
2019-03-13T18:30:19.988Z,99646.73
2019-03-13T18:32:50.410Z,99643.41
2019-03-13T18:35:20.903Z,99648.47
2019-03-13T18:37:51.251Z,99664.86
2019-03-13T18:40:21.303Z,99664.97
2019-03-13T18:42:51.293Z,99656.22
2019-03-13T18:45:24.126Z,99671.56
2019-03-13T18:47:54.273Z,99666.88
2019-03-13T18:50:24.490Z,99672.49
2019-03-13T18:52:54.550Z,99681.08
2019-03-13T18:55:24.772Z,99678.05
2019-03-13T18:57:54.914Z,99680.84
2019-03-13T19:00:30.200Z,99663.32
2019-03-13T19:03:00.338Z,99659.87
2019-03-13T19:05:30.613Z,99657.32
2019-03-13T19:08:00.696Z,99647.58
2019-03-13T19:10:30.627Z,99642.09
2019-03-13T19:13:00.870Z,99646.14
2019-03-13T19:15:31.505Z,99646.52
2019-03-13T19:18:01.632Z,99637.56
2019-03-13T19:20:32.142Z,99641.27
2019-03-13T19:23:03.410Z,99636.23
2019-03-13T19:25:33.472Z,99631.52
2019-03-13T19:28:03.592Z,99638.06
2019-03-13T19:30:33.821Z,99632.16
2019-03-13T19:33:03.846Z,99620.81
2019-03-13T19:35:33.885Z,99615.91
2019-03-13T19:38:05.429Z,99617.45
2019-03-13T19:40:35.779Z,99608.98
2019-03-13T19:43:06.059Z,99611.53
2019-03-13T19:45:39.181Z,99590.92
2019-03-13T19:48:09.277Z,99605.58
2019-03-13T19:50:39.935Z,99594.88
2019-03-13T19:53:10.727Z,99593.64
2019-03-13T19:55:41.960Z,99592.70
2019-03-13T19:58:12.075Z,99594.77
2019-03-13T20:00:42.448Z,99590.80
2019-03-13T20:03:12.562Z,99592.30
2019-03-13T20:05:45.742Z,99588.05
2019-03-13T20:08:14.590Z,99578.54
2019-03-13T20:10:44.710Z,99594.22
2019-03-13T20:13:14.728Z,99587.55
2019-03-13T20:15:44.863Z,99577.08
2019-03-13T20:18:14.796Z,99586.47
2019-03-13T20:20:44.700Z,99576.47
2019-03-13T20:23:14.699Z,99581.50
2019-03-13T20:25:44.721Z,99576.83
2019-03-13T20:28:14.867Z,99577.25
2019-03-13T20:30:44.989Z,99574.87
2019-03-13T20:33:15.012Z,99575.16
2019-03-13T20:35:45.006Z,99579.39
2019-03-13T20:38:15.301Z,99565.55
2019-03-13T20:40:45.228Z,99569.04
2019-03-13T20:43:15.293Z,99566.20
2019-03-13T20:45:45.285Z,99558.91
2019-03-13T20:48:15.153Z,99567.02
2019-03-13T20:50:45.019Z,99558.91
2019-03-13T20:53:14.965Z,99547.65
2019-03-13T20:55:44.952Z,99552.16
2019-03-13T20:58:14.959Z,99558.24
2019-03-13T21:00:45.180Z,99567.42
2019-03-13T21:03:15.137Z,99555.25
2019-03-13T21:05:45.050Z,99549.09
2019-03-13T21:08:14.973Z,99551.53
2019-03-13T21:10:44.861Z,99548.49
2019-03-13T21:13:14.814Z,99538.26
2019-03-13T21:15:44.701Z,99539.19
2019-03-13T21:18:14.619Z,99535.56
2019-03-13T21:20:44.832Z,99533.95
2019-03-13T21:23:15.321Z,99543.63
2019-03-13T21:25:45.436Z,99538.84
2019-03-13T21:28:15.362Z,99542.12
2019-03-13T21:30:45.778Z,99548.80
2019-03-13T21:33:17.016Z,99534.04
2019-03-13T21:35:46.940Z,99548.34
2019-03-13T21:38:16.879Z,99541.12
2019-03-13T21:40:47.091Z,99547.78
2019-03-13T21:43:17.525Z,99543.66
2019-03-13T21:45:47.869Z,99556.55
2019-03-13T21:48:18.353Z,99556.95
2019-03-13T21:50:50.358Z,99538.53
2019-03-13T21:53:20.811Z,99545.39
2019-03-13T21:55:50.709Z,99546.80
2019-03-13T21:58:20.776Z,99552.13
2019-03-13T22:00:50.772Z,99548.63
2019-03-13T22:03:29.582Z,99546.41
2019-03-13T22:05:52.679Z,99544.06
2019-03-13T22:08:22.719Z,99551.76
2019-03-13T22:10:52.860Z,99544.59
2019-03-13T22:13:22.938Z,99548.59
2019-03-13T22:15:53.307Z,99548.14
2019-03-13T22:18:23.605Z,99562.05
2019-03-13T22:20:54.099Z,99556.65
2019-03-13T22:23:24.554Z,99562.08
2019-03-13T22:25:54.859Z,99548.97
2019-03-13T22:28:24.745Z,99564.72
2019-03-13T22:30:54.617Z,99561.66
2019-03-13T22:33:24.613Z,99554.49
2019-03-13T22:35:54.859Z,99558.64
2019-03-13T22:38:25.644Z,99566.34
2019-03-13T22:40:55.527Z,99560.84
2019-03-13T22:43:25.667Z,99542.59
2019-03-13T22:45:55.603Z,99541.29
2019-03-13T22:48:25.553Z,99536.76
2019-03-13T22:50:55.504Z,99546.44
2019-03-13T22:53:25.462Z,99555.31
2019-03-13T22:55:55.375Z,99552.58
2019-03-13T22:58:25.345Z,99562.38
2019-03-13T23:01:02.104Z,99557.56
2019-03-13T23:03:32.460Z,99559.94
2019-03-13T23:06:02.891Z,99557.04
2019-03-13T23:08:32.852Z,99559.57
2019-03-13T23:11:02.848Z,99552.31
2019-03-13T23:13:32.783Z,99550.53
2019-03-13T23:16:02.767Z,99551.40
2019-03-13T23:18:32.693Z,99555.95
2019-03-13T23:21:03.332Z,99563.41
2019-03-13T23:23:33.239Z,99556.14
2019-03-13T23:26:03.225Z,99559.87
2019-03-13T23:28:33.351Z,99553.12
2019-03-13T23:31:03.257Z,99550.87
2019-03-13T23:33:33.547Z,99549.27
2019-03-13T23:36:03.538Z,99550.30
2019-03-13T23:38:33.619Z,99544.70
2019-03-13T23:43:23.855Z,99548.84
2019-03-13T23:45:53.838Z,99550.09
2019-03-13T23:48:24.364Z,99555.73
2019-03-13T23:50:54.318Z,99554.86
2019-03-13T23:53:24.463Z,99553.58
2019-03-13T23:55:54.466Z,99557.88
2019-03-13T23:58:24.361Z,99544.94
